Time;durP1;ratioP1;P1;durP2;ratioP2;P2;SDS_P1;SDS_P2;PMS_P1;PMS_P2;Temp;Humidity;BMP_temperature;BMP_pressure;BME280_temperature;BME280_humidity;BME280_pressure;Samples;Min_cycle;Max_cycle;Signal;HPM_P1;HPM_P2
2022/04/17 04:00:25;;;;;;;10.98;9.88;;;2.90;99.90;;;;;;5938799;23;21724;-67
2022/04/17 04:02:52;;;;;;;12.68;11.25;;;2.90;99.90;;;;;;4979293;28;20212;-66
2022/04/17 04:05:20;;;;;;;13.73;10.40;;;2.80;99.90;;;;;;4996766;28;20270;-67
2022/04/17 04:07:47;;;;;;;12.55;11.27;;;2.80;99.90;;;;;;5001211;28;20263;-67
2022/04/17 04:10:14;;;;;;;14.00;11.50;;;2.80;99.90;;;;;;4990336;28;20200;-67
2022/04/17 04:12:41;;;;;;;11.73;10.73;;;2.80;99.90;;;;;;4984223;28;20251;-67
2022/04/17 04:15:09;;;;;;;12.75;11.32;;;2.80;99.90;;;;;;4991335;28;20211;-67
2022/04/17 04:17:37;;;;;;;12.68;11.05;;;2.80;99.90;;;;;;4981366;28;20251;-67
2022/04/17 04:20:07;;;;;;;13.65;10.52;;;2.80;99.90;;;;;;4971483;28;20240;-67
2022/04/17 04:22:33;;;;;;;11.52;10.57;;;2.70;99.90;;;;;;4970963;28;20220;-67
2022/04/17 04:25:00;;;;;;;12.27;10.75;;;2.80;99.90;;;;;;4988114;28;20211;-67
2022/04/17 04:30:11;;;;;;;11.55;10.38;;;2.70;99.90;;;;;;4986635;28;20549;-67
2022/04/17 04:32:39;;;;;;;14.88;11.23;;;2.80;99.90;;;;;;4972463;28;20205;-67
2022/04/17 04:35:07;;;;;;;16.77;11.95;;;2.80;99.90;;;;;;4986841;28;20203;-67
2022/04/17 04:37:33;;;;;;;12.57;11.32;;;2.80;99.90;;;;;;4978617;28;20239;-67
2022/04/17 04:40:00;;;;;;;11.60;10.50;;;2.80;99.90;;;;;;4969655;28;20271;-67
2022/04/17 04:42:27;;;;;;;12.60;11.35;;;2.80;99.90;;;;;;4988991;23;20255;-71
2022/04/17 04:47:34;;;;;;;13.10;11.80;;;2.80;99.90;;;;;;4969234;28;20259;-71
2022/04/17 04:50:03;;;;;;;14.75;13.38;;;3.00;99.90;;;;;;4956340;28;20304;-73
2022/04/17 04:52:35;;;;;;;14.07;12.75;;;3.40;99.90;;;;;;4949250;28;20277;-71
2022/04/17 04:55:02;;;;;;;17.65;13.30;;;3.90;99.90;;;;;;4937644;28;20269;-72
2022/04/17 04:57:28;;;;;;;12.82;11.70;;;4.30;99.90;;;;;;4935289;29;20210;-71
2022/04/17 04:59:55;;;;;;;11.52;10.48;;;4.60;99.90;;;;;;4936144;29;20237;-71
2022/04/17 05:02:22;;;;;;;10.50;9.35;;;4.80;99.90;;;;;;4935671;29;20300;-71
2022/04/17 05:04:49;;;;;;;11.45;10.38;;;4.80;99.90;;;;;;4955182;29;20225;-71
2022/04/17 05:07:17;;;;;;;11.40;10.30;;;4.70;99.90;;;;;;4933457;28;20222;-71
2022/04/17 05:09:43;;;;;;;12.00;10.43;;;4.70;99.90;;;;;;4935043;29;20201;-71
2022/04/17 05:12:10;;;;;;;10.82;9.82;;;4.70;99.90;;;;;;4935748;29;20206;-72
2022/04/17 05:14:41;;;;;;;12.95;11.50;;;4.80;99.90;;;;;;4936517;29;20210;-71
2022/04/17 05:17:08;;;;;;;10.85;9.88;;;4.70;99.90;;;;;;4947424;29;20202;-71
2022/04/17 05:19:35;;;;;;;10.82;9.73;;;4.60;99.90;;;;;;4936032;29;20253;-73
2022/04/17 05:22:02;;;;;;;15.13;10.68;;;4.60;99.90;;;;;;4946628;29;20209;-71
2022/04/17 05:24:30;;;;;;;12.05;10.75;;;4.50;99.90;;;;;;4938893;28;20560;-71
2022/04/17 05:26:59;;;;;;;11.65;10.45;;;4.50;99.90;;;;;;4938171;29;20228;-71
2022/04/17 05:29:26;;;;;;;11.30;10.30;;;4.60;99.90;;;;;;4935581;29;20838;-71
2022/04/17 05:31:53;;;;;;;10.20;9.20;;;4.60;99.90;;;;;;4935409;29;20213;-71
2022/04/17 05:34:19;;;;;;;11.15;9.70;;;4.70;99.90;;;;;;4935981;29;20711;-71
2022/04/17 05:36:46;;;;;;;10.60;9.70;;;4.80;99.90;;;;;;4942611;29;20205;-71
2022/04/17 05:39:13;;;;;;;10.30;9.30;;;4.90;99.90;;;;;;4936330;29;20256;-72
2022/04/17 05:41:41;;;;;;;9.45;8.82;;;4.90;99.90;;;;;;4941383;29;20236;-70
2022/04/17 05:44:09;;;;;;;9.82;8.82;;;4.90;99.90;;;;;;4942147;28;20230;-70
2022/04/17 05:46:37;;;;;;;9.82;8.98;;;5.00;99.90;;;;;;4936252;29;20232;-71
2022/04/17 05:49:04;;;;;;;11.45;10.38;;;5.10;99.90;;;;;;4932973;29;20379;-71
2022/04/17 05:51:30;;;;;;;9.13;8.40;;;5.30;99.90;;;;;;4934802;29;20209;-71
2022/04/17 05:53:58;;;;;;;9.95;9.02;;;5.50;99.90;;;;;;4936996;29;20284;-72
2022/04/17 05:56:25;;;;;;;10.05;9.10;;;5.60;99.90;;;;;;4917533;29;20210;-71
2022/04/17 05:58:53;;;;;;;9.73;8.75;;;5.90;99.90;;;;;;4935084;29;20225;-70
2022/04/17 06:01:19;;;;;;;10.48;9.25;;;6.00;99.90;;;;;;4933163;29;20214;-71
2022/04/17 06:03:46;;;;;;;9.43;8.70;;;6.20;99.90;;;;;;4938724;29;20596;-70
2022/04/17 06:06:13;;;;;;;9.68;8.88;;;6.70;99.90;;;;;;4934211;29;20237;-72
2022/04/17 06:08:40;;;;;;;11.02;9.93;;;7.30;99.90;;;;;;4935401;29;20214;-71
2022/04/17 06:11:06;;;;;;;11.57;10.57;;;8.00;99.90;;;;;;4935137;29;20285;-71
2022/04/17 06:13:33;;;;;;;13.13;11.70;;;8.30;99.90;;;;;;4940645;28;20225;-71
2022/04/17 06:16:01;;;;;;;14.63;12.55;;;8.10;99.90;;;;;;4935176;29;20209;-71
2022/04/17 06:18:28;;;;;;;15.02;11.25;;;7.70;99.90;;;;;;4945973;29;20205;-71
2022/04/17 06:20:54;;;;;;;12.00;10.90;;;7.30;99.90;;;;;;4934309;28;20285;-71
2022/04/17 06:23:21;;;;;;;11.48;10.60;;;7.00;99.90;;;;;;4938810;28;20225;-70
2022/04/17 06:25:48;;;;;;;12.52;10.57;;;6.80;99.90;;;;;;4933996;29;20261;-70
2022/04/17 06:28:14;;;;;;;12.23;11.02;;;6.70;99.90;;;;;;4943056;29;20293;-70
2022/04/17 06:30:41;;;;;;;10.32;9.48;;;6.60;99.90;;;;;;4936721;28;20264;-71
2022/04/17 06:33:09;;;;;;;12.38;10.02;;;6.60;99.90;;;;;;4935244;29;20222;-70
2022/04/17 06:35:36;;;;;;;10.20;9.40;;;6.50;99.90;;;;;;4934274;29;20212;-71
2022/04/17 06:38:05;;;;;;;10.43;9.40;;;6.50;99.90;;;;;;4954068;28;20264;-70
2022/04/17 06:40:33;;;;;;;10.30;9.25;;;6.60;99.90;;;;;;4941095;29;20312;-71
2022/04/17 06:43:01;;;;;;;11.57;9.77;;;6.50;99.90;;;;;;4936178;28;20295;-70
2022/04/17 06:45:29;;;;;;;6.85;6.32;;;6.60;99.90;;;;;;4934179;29;20238;-70
2022/04/17 06:47:55;;;;;;;8.10;7.40;;;6.60;99.90;;;;;;4932076;29;20257;-70
2022/04/17 06:50:24;;;;;;;8.38;7.53;;;6.60;99.90;;;;;;4934007;29;20206;-70
2022/04/17 06:52:51;;;;;;;6.65;6.15;;;6.60;99.90;;;;;;4936506;29;20225;-70
2022/04/17 06:55:18;;;;;;;8.50;6.82;;;6.70;99.90;;;;;;4933704;29;20700;-70
2022/04/17 06:57:46;;;;;;;7.57;7.00;;;6.70;99.90;;;;;;4931898;29;20208;-70
2022/04/17 07:00:14;;;;;;;7.57;7.03;;;6.80;99.90;;;;;;4933833;29;20234;-71
2022/04/17 07:02:42;;;;;;;6.80;5.68;;;6.80;99.90;;;;;;4934088;29;21088;-70
2022/04/17 07:05:09;;;;;;;7.85;7.20;;;6.90;99.90;;;;;;4932462;29;20206;-70
2022/04/17 07:07:37;;;;;;;6.55;6.05;;;7.00;99.90;;;;;;4935820;29;20265;-70
2022/04/17 07:10:05;;;;;;;7.93;7.20;;;7.00;99.90;;;;;;4934078;29;20250;-70
2022/04/17 07:12:34;;;;;;;7.22;6.70;;;7.10;99.90;;;;;;4937074;28;20597;-70
2022/04/17 07:15:01;;;;;;;6.68;5.70;;;7.10;99.90;;;;;;4933888;29;20235;-70
2022/04/17 07:17:35;;;;;;;6.10;5.68;;;7.20;99.90;;;;;;4934699;29;20221;-71
2022/04/17 07:20:02;;;;;;;5.65;5.20;;;7.20;99.90;;;;;;4933462;29;20706;-71
2022/04/17 07:22:29;;;;;;;5.55;5.15;;;7.30;99.90;;;;;;4934388;29;20233;-71
2022/04/17 07:25:00;;;;;;;5.13;4.82;;;7.40;99.90;;;;;;4932791;29;20202;-71
2022/04/17 07:27:26;;;;;;;4.78;4.30;;;7.50;99.90;;;;;;4937680;29;20583;-71
2022/04/17 07:29:53;;;;;;;4.68;4.22;;;7.60;99.90;;;;;;4937071;29;20217;-71
2022/04/17 07:32:20;;;;;;;4.90;4.50;;;7.70;99.90;;;;;;4941584;29;20210;-70
2022/04/17 07:34:47;;;;;;;5.03;4.45;;;7.80;99.90;;;;;;4943143;28;20197;-71
2022/04/17 07:37:24;;;;;;;3.85;3.60;;;7.80;99.90;;;;;;4929746;29;20640;-72
2022/04/17 07:39:51;;;;;;;3.60;3.50;;;7.90;99.90;;;;;;4943081;29;20639;-70
2022/04/17 07:42:19;;;;;;;3.58;3.38;;;8.00;99.90;;;;;;4939462;29;20833;-71
2022/04/17 07:44:45;;;;;;;3.42;3.25;;;8.00;99.90;;;;;;4938965;29;20205;-71
2022/04/17 07:47:12;;;;;;;3.70;3.50;;;8.10;99.90;;;;;;4933172;29;20214;-70
2022/04/17 07:49:39;;;;;;;2.63;2.55;;;8.20;99.90;;;;;;4946634;29;20289;-70
2022/04/17 07:52:07;;;;;;;2.72;2.63;;;8.30;99.90;;;;;;4927182;29;20747;-71
2022/04/17 07:54:33;;;;;;;2.10;2.10;;;8.40;99.90;;;;;;4930175;29;20210;-71
2022/04/17 07:57:00;;;;;;;2.35;2.25;;;8.60;99.90;;;;;;4934091;29;20213;-69
2022/04/17 07:59:28;;;;;;;2.40;2.40;;;8.70;99.90;;;;;;4932005;29;20214;-70
2022/04/17 08:02:01;;;;;;;1.85;1.75;;;8.80;99.90;;;;;;4932381;29;20570;-70
2022/04/17 08:04:28;;;;;;;1.85;1.75;;;8.90;99.90;;;;;;4933112;29;20769;-70
2022/04/17 08:06:54;;;;;;;2.15;2.15;;;9.10;98.90;;;;;;4938939;29;20663;-70
2022/04/17 08:09:21;;;;;;;1.95;1.95;;;9.20;97.80;;;;;;4935571;29;20261;-70
2022/04/17 08:11:51;;;;;;;1.35;1.35;;;9.20;98.50;;;;;;4935345;29;20308;-70
2022/04/17 08:14:18;;;;;;;1.63;1.63;;;9.40;97.30;;;;;;4933115;29;20232;-70
2022/04/17 08:16:46;;;;;;;1.80;1.80;;;9.60;96.80;;;;;;4933984;29;20260;-70
2022/04/17 08:19:13;;;;;;;1.67;1.67;;;9.70;96.30;;;;;;4933261;29;20209;-70
2022/04/17 08:21:40;;;;;;;1.30;1.30;;;9.80;96.00;;;;;;4938523;29;20333;-70
2022/04/17 08:24:06;;;;;;;11.27;10.10;;;9.90;95.20;;;;;;4932556;29;20233;-70
2022/04/17 08:26:33;;;;;;;1.98;1.98;;;10.00;95.00;;;;;;4928531;29;20269;-70
2022/04/17 08:29:00;;;;;;;20.40;12.07;;;10.10;94.90;;;;;;4936799;29;20209;-69
2022/04/17 08:31:27;;;;;;;7.75;6.90;;;10.10;94.90;;;;;;4936801;28;20249;-69
2022/04/17 08:33:55;;;;;;;5.55;5.18;;;10.10;95.00;;;;;;4940772;29;20230;-69
2022/04/17 08:36:21;;;;;;;3.33;3.17;;;10.20;95.30;;;;;;4946369;29;20219;-69
2022/04/17 08:38:48;;;;;;;2.58;2.47;;;10.40;95.10;;;;;;4944999;29;20256;-70
2022/04/17 08:41:16;;;;;;;2.13;2.03;;;10.50;94.80;;;;;;4943926;29;20229;-69
2022/04/17 08:43:44;;;;;;;2.08;1.98;;;10.70;94.30;;;;;;4944495;29;20238;-69
2022/04/17 08:46:12;;;;;;;1.67;1.67;;;10.80;94.00;;;;;;4946864;29;20220;-70
2022/04/17 08:48:39;;;;;;;1.70;1.70;;;10.90;92.90;;;;;;4944565;29;20524;-70
2022/04/17 08:51:08;;;;;;;2.20;2.10;;;10.90;93.20;;;;;;4935922;29;20257;-70
2022/04/17 08:53:36;;;;;;;6.57;6.18;;;11.00;93.50;;;;;;4939941;29;20733;-70
2022/04/17 08:56:03;;;;;;;2.70;2.50;;;11.00;94.30;;;;;;4938406;29;20280;-70
2022/04/17 08:58:31;;;;;;;1.13;1.02;;;11.10;94.20;;;;;;4932365;29;20622;-70
2022/04/17 09:00:57;;;;;;;1.55;1.55;;;11.30;92.30;;;;;;4935093;29;20905;-69
2022/04/17 09:03:24;;;;;;;1.55;1.15;;;11.50;92.30;;;;;;4934104;29;20326;-69
2022/04/17 09:05:51;;;;;;;1.35;1.23;;;11.60;91.30;;;;;;4947274;29;20211;-69
2022/04/17 09:08:21;;;;;;;1.30;1.30;;;11.70;91.20;;;;;;4937142;29;20222;-70
2022/04/17 09:10:55;;;;;;;1.60;1.50;;;11.70;90.20;;;;;;4929590;29;20340;-70
2022/04/17 09:13:29;;;;;;;1.42;1.42;;;11.80;90.20;;;;;;4933650;29;20257;-70
2022/04/17 09:15:56;;;;;;;1.20;1.20;;;11.80;90.60;;;;;;4935227;29;20217;-70
2022/04/17 09:18:23;;;;;;;1.77;1.67;;;11.90;90.70;;;;;;4937149;29;20210;-70
2022/04/17 09:20:50;;;;;;;1.10;1.10;;;12.00;90.10;;;;;;4935202;29;20233;-70
2022/04/17 09:23:34;;;;;;;1.20;1.20;;;12.10;86.60;;;;;;4944548;28;20232;-70
2022/04/17 09:26:01;;;;;;;1.42;1.42;;;12.10;84.10;;;;;;4939240;29;20205;-70
2022/04/17 09:28:32;;;;;;;1.90;1.80;;;12.20;82.70;;;;;;4950871;29;20288;-70
2022/04/17 09:31:01;;;;;;;5.00;4.53;;;12.20;84.20;;;;;;4939540;29;20304;-70
2022/04/17 09:33:37;;;;;;;3.13;3.03;;;12.20;84.30;;;;;;4937317;29;20292;-69
2022/04/17 09:36:04;;;;;;;3.42;2.65;;;12.30;84.70;;;;;;4939332;29;20284;-70
2022/04/17 09:38:33;;;;;;;3.17;3.08;;;12.30;84.90;;;;;;4941179;29;20246;-70
2022/04/17 09:41:06;;;;;;;3.42;3.20;;;12.20;85.50;;;;;;4935382;29;20214;-69
2022/04/17 09:43:34;;;;;;;1.70;1.65;;;12.30;86.20;;;;;;4933160;29;20238;-69
2022/04/17 09:46:02;;;;;;;2.42;1.80;;;12.40;86.00;;;;;;4941095;29;20212;-70
2022/04/17 09:48:31;;;;;;;2.92;2.75;;;12.50;85.00;;;;;;4946647;29;20209;-69
2022/04/17 09:50:58;;;;;;;2.50;2.40;;;12.50;83.10;;;;;;4939689;29;20220;-70
2022/04/17 09:53:36;;;;;;;2.35;2.00;;;12.50;83.50;;;;;;4944227;28;20222;-70
2022/04/17 09:56:10;;;;;;;0.75;0.75;;;12.50;82.80;;;;;;4954990;28;20264;-70
2022/04/17 09:58:45;;;;;;;0.80;0.80;;;12.60;83.90;;;;;;4954703;29;20292;-70
2022/04/17 10:01:15;;;;;;;1.23;1.23;;;12.60;84.60;;;;;;4953855;29;20247;-70
2022/04/17 10:03:43;;;;;;;1.40;1.40;;;12.80;84.10;;;;;;4954183;28;20687;-69
2022/04/17 10:06:12;;;;;;;1.70;1.70;;;12.90;83.20;;;;;;4947396;29;20210;-69
2022/04/17 10:08:42;;;;;;;1.40;1.40;;;12.80;83.20;;;;;;4938700;29;20480;-69
2022/04/17 10:11:10;;;;;;;0.88;0.88;;;12.80;82.70;;;;;;4937767;29;20473;-68
2022/04/17 10:13:38;;;;;;;1.10;1.10;;;12.80;80.00;;;;;;4925273;29;20688;-69
2022/04/17 10:16:08;;;;;;;1.30;1.30;;;13.00;80.60;;;;;;4935186;29;20476;-69
2022/04/17 10:18:40;;;;;;;1.40;1.40;;;13.00;81.60;;;;;;4935787;29;20462;-68
2022/04/17 10:21:09;;;;;;;1.30;1.30;;;13.00;82.60;;;;;;4933638;29;20502;-69
2022/04/17 10:23:37;;;;;;;2.27;2.17;;;13.10;82.80;;;;;;4934529;29;20997;-69
2022/04/17 10:26:05;;;;;;;1.30;1.30;;;13.20;82.80;;;;;;4930738;29;20501;-69
2022/04/17 10:28:39;;;;;;;1.20;1.20;;;13.30;81.30;;;;;;4934841;29;20569;-69
2022/04/17 10:31:15;;;;;;;1.37;1.23;;;13.40;81.20;;;;;;4934214;29;20473;-69
2022/04/17 10:33:56;;;;;;;1.40;1.30;;;13.50;81.70;;;;;;4934892;29;20521;-70
2022/04/17 10:36:42;;;;;;;3.10;3.00;;;13.50;79.80;;;;;;4934938;29;20893;-70
2022/04/17 10:39:16;;;;;;;1.87;1.87;;;13.50;78.70;;;;;;4934762;29;20477;-70
2022/04/17 10:41:43;;;;;;;4.10;3.90;;;13.40;77.50;;;;;;4933829;29;20501;-70
2022/04/17 10:44:12;;;;;;;3.17;3.07;;;13.40;78.40;;;;;;4935061;29;20635;-70
2022/04/17 10:46:49;;;;;;;1.97;1.87;;;13.30;77.70;;;;;;4934320;29;20462;-70
2022/04/17 10:49:21;;;;;;;1.30;1.30;;;13.40;79.00;;;;;;4934280;29;20841;-70
2022/04/17 10:51:53;;;;;;;0.90;0.90;;;13.30;79.50;;;;;;4933828;29;20461;-71
2022/04/17 10:54:20;;;;;;;0.80;0.80;;;13.30;76.50;;;;;;4933868;29;20544;-71
2022/04/17 10:57:01;;;;;;;1.10;1.10;;;13.40;77.30;;;;;;4932116;29;20462;-71
2022/04/17 10:59:31;;;;;;;1.10;0.90;;;13.50;79.20;;;;;;4934500;29;20556;-71
2022/04/17 11:02:03;;;;;;;1.10;1.10;;;13.70;75.30;;;;;;4933475;29;20858;-71
2022/04/17 11:04:32;;;;;;;1.20;1.20;;;13.80;74.10;;;;;;4966614;23;20565;-66
2022/04/17 11:07:31;;;;;;;0.90;0.90;;;13.80;73.20;;;;;;4971843;28;20522;-66
2022/04/17 11:10:35;;;;;;;0.70;0.70;;;13.70;73.10;;;;;;4971859;28;20554;-67
2022/04/17 11:13:02;;;;;;;0.70;0.70;;;13.70;71.80;;;;;;4971927;28;21055;-67
2022/04/17 11:15:32;;;;;;;1.10;1.10;;;13.60;75.10;;;;;;4972525;28;20522;-67
2022/04/17 11:18:03;;;;;;;1.17;1.17;;;13.60;74.00;;;;;;4971469;28;20464;-67
2022/04/17 11:20:30;;;;;;;0.97;0.97;;;13.60;73.90;;;;;;4970416;28;20499;-67
2022/04/17 11:22:58;;;;;;;1.33;1.17;;;13.70;74.70;;;;;;4952348;28;20468;-67
2022/04/17 11:25:29;;;;;;;1.00;1.00;;;13.90;73.60;;;;;;4953257;28;20520;-67
2022/04/17 11:27:57;;;;;;;1.90;1.70;;;13.90;74.00;;;;;;4952989;28;20811;-67
2022/04/17 11:30:34;;;;;;;1.13;1.13;;;13.90;74.00;;;;;;4952193;28;20468;-68
2022/04/17 11:33:06;;;;;;;1.10;1.00;;;13.90;72.30;;;;;;4952269;29;20496;-67
2022/04/17 11:35:34;;;;;;;1.13;1.13;;;14.10;68.80;;;;;;4960952;28;20514;-67
2022/04/17 11:38:08;;;;;;;1.10;1.10;;;14.20;67.50;;;;;;4971940;28;20467;-67
2022/04/17 11:40:36;;;;;;;1.60;1.50;;;14.20;64.50;;;;;;4971473;28;20468;-67
2022/04/17 11:43:08;;;;;;;1.50;1.40;;;14.20;65.80;;;;;;4971651;28;20467;-67
2022/04/17 11:45:37;;;;;;;1.50;1.40;;;14.20;66.90;;;;;;4966783;28;20462;-68
2022/04/17 11:48:06;;;;;;;1.10;1.10;;;14.30;66.80;;;;;;4947331;29;20496;-68
2022/04/17 11:50:33;;;;;;;1.50;1.47;;;14.30;65.30;;;;;;4952282;28;20467;-68
2022/04/17 11:53:00;;;;;;;1.60;1.50;;;14.30;66.90;;;;;;4952505;28;20540;-68
2022/04/17 11:55:29;;;;;;;1.23;1.23;;;14.40;65.80;;;;;;4952618;28;20537;-67
2022/04/17 11:57:57;;;;;;;1.00;1.00;;;14.40;65.30;;;;;;4952497;28;20473;-67
2022/04/17 12:00:26;;;;;;;2.13;1.20;;;14.40;66.10;;;;;;4951868;28;20837;-68
2022/04/17 12:02:58;;;;;;;1.30;1.30;;;14.30;66.90;;;;;;4953980;28;20475;-68
2022/04/17 12:05:26;;;;;;;1.50;1.40;;;14.30;68.70;;;;;;4970767;28;20549;-68
2022/04/17 12:08:04;;;;;;;1.47;1.37;;;14.50;66.90;;;;;;4964297;28;20480;-66
2022/04/17 12:10:31;;;;;;;1.20;1.20;;;14.50;66.80;;;;;;4951239;28;20984;-66
2022/04/17 12:12:58;;;;;;;1.13;1.13;;;14.50;67.40;;;;;;4952493;28;20575;-67
2022/04/17 12:15:25;;;;;;;1.10;1.10;;;14.70;66.70;;;;;;4952714;28;20492;-68
2022/04/17 12:18:00;;;;;;;1.07;0.97;;;14.80;66.40;;;;;;4961846;28;20468;-67
2022/04/17 12:20:27;;;;;;;1.27;1.07;;;14.70;65.20;;;;;;4970496;28;20933;-67
2022/04/17 12:22:54;;;;;;;1.20;1.20;;;14.50;64.80;;;;;;4967792;28;20457;-68
2022/04/17 12:25:22;;;;;;;1.60;1.50;;;14.40;64.30;;;;;;4947585;28;21013;-67
2022/04/17 12:27:50;;;;;;;1.10;1.10;;;14.50;65.80;;;;;;4951992;28;20467;-67
2022/04/17 12:30:19;;;;;;;1.13;1.13;;;14.60;65.50;;;;;;4951798;28;20539;-67
2022/04/17 12:32:47;;;;;;;0.93;0.93;;;14.80;64.30;;;;;;4951538;28;20492;-67
2022/04/17 12:35:22;;;;;;;1.07;1.07;;;14.80;62.90;;;;;;4952473;28;20485;-67
2022/04/17 12:37:49;;;;;;;1.20;1.17;;;14.80;64.00;;;;;;4952164;28;20515;-67
2022/04/17 12:40:20;;;;;;;1.87;1.70;;;15.00;62.80;;;;;;4951606;28;20473;-68
2022/04/17 12:42:47;;;;;;;1.30;1.30;;;15.00;63.50;;;;;;4952407;28;20471;-67
2022/04/17 12:45:24;;;;;;;1.20;1.10;;;15.00;61.30;;;;;;4951995;28;20509;-68
2022/04/17 12:48:01;;;;;;;1.37;1.37;;;14.90;60.40;;;;;;4951225;28;20979;-68
2022/04/17 12:50:29;;;;;;;1.40;1.30;;;14.90;61.10;;;;;;4950923;28;20468;-68
2022/04/17 12:52:56;;;;;;;0.70;0.70;;;15.00;59.40;;;;;;4969854;28;20487;-68
2022/04/17 12:55:30;;;;;;;2.30;1.00;;;15.00;59.90;;;;;;4971308;28;20586;-69
2022/04/17 12:57:58;;;;;;;1.43;0.87;;;14.90;59.50;;;;;;4971099;28;20471;-67
2022/04/17 13:00:27;;;;;;;1.17;1.17;;;14.80;60.60;;;;;;4970394;28;20460;-68
2022/04/17 13:03:09;;;;;;;1.33;1.33;;;15.00;59.40;;;;;;4970519;28;20481;-68
2022/04/17 13:05:37;;;;;;;1.00;1.00;;;15.00;57.60;;;;;;4963165;28;20531;-69
2022/04/17 13:08:06;;;;;;;1.17;0.80;;;15.10;58.50;;;;;;4952181;28;20469;-67
2022/04/17 13:10:34;;;;;;;1.07;1.07;;;15.10;58.20;;;;;;4951155;28;20524;-67
2022/04/17 13:13:01;;;;;;;0.90;0.90;;;15.10;58.30;;;;;;4945312;28;20547;-67
2022/04/17 13:15:32;;;;;;;1.10;1.10;;;15.10;57.60;;;;;;4948845;28;20639;-67
2022/04/17 13:17:58;;;;;;;1.90;0.93;;;15.00;58.80;;;;;;4954818;28;20473;-67
2022/04/17 13:20:27;;;;;;;1.07;1.07;;;14.90;58.80;;;;;;4968070;28;20477;-67
2022/04/17 13:22:56;;;;;;;1.07;1.03;;;14.90;57.70;;;;;;4974725;28;20550;-67
2022/04/17 13:25:23;;;;;;;0.80;0.80;;;15.00;58.40;;;;;;4974759;28;20483;-67
2022/04/17 13:27:51;;;;;;;2.33;1.07;;;15.10;57.90;;;;;;4975068;28;20467;-67
2022/04/17 13:30:20;;;;;;;1.23;1.23;;;15.20;58.00;;;;;;4974726;28;20526;-67
2022/04/17 13:32:47;;;;;;;1.03;1.03;;;15.20;57.60;;;;;;4974677;28;20495;-67
2022/04/17 13:35:14;;;;;;;0.97;0.97;;;15.10;58.10;;;;;;4973543;28;20483;-67
2022/04/17 13:40:28;;;;;;;2.57;1.70;;;15.20;58.30;;;;;;4970763;28;20448;-67
2022/04/17 13:42:56;;;;;;;2.07;1.50;;;15.30;58.80;;;;;;4954595;29;20480;-67
2022/04/17 13:45:22;;;;;;;0.90;0.90;;;15.40;59.10;;;;;;4954031;28;20484;-67
2022/04/17 13:47:49;;;;;;;1.33;1.27;;;15.40;59.50;;;;;;4946294;28;20473;-67
2022/04/17 13:50:16;;;;;;;2.20;2.10;;;15.30;59.60;;;;;;4954173;28;20601;-67
2022/04/17 13:52:42;;;;;;;3.23;2.93;;;15.40;60.40;;;;;;4954363;28;20514;-67
2022/04/17 13:55:11;;;;;;;3.10;1.53;;;15.40;59.80;;;;;;4954434;28;21041;-67
2022/04/17 13:57:39;;;;;;;2.60;2.40;;;15.30;58.60;;;;;;4954670;28;20904;-67
2022/04/17 14:00:07;;;;;;;2.03;1.93;;;15.40;58.60;;;;;;4954163;28;20483;-67
2022/04/17 14:02:34;;;;;;;1.97;1.97;;;15.50;58.80;;;;;;4960421;28;20507;-67
2022/04/17 14:05:03;;;;;;;2.17;2.07;;;15.50;59.60;;;;;;4973480;28;20555;-67
2022/04/17 14:07:30;;;;;;;1.27;1.27;;;15.50;58.80;;;;;;4973611;28;20474;-67
2022/04/17 14:09:56;;;;;;;1.27;1.27;;;15.50;59.50;;;;;;4973270;28;20471;-67
2022/04/17 14:12:24;;;;;;;1.50;1.50;;;15.50;59.30;;;;;;4973697;28;21359;-67
2022/04/17 14:14:55;;;;;;;2.70;2.60;;;15.50;59.30;;;;;;4973769;28;20483;-68
2022/04/17 14:17:22;;;;;;;1.00;1.00;;;15.60;61.30;;;;;;4959603;28;20868;-68
2022/04/17 14:19:49;;;;;;;1.37;1.37;;;15.60;59.50;;;;;;4953812;28;20519;-67
2022/04/17 14:22:16;;;;;;;1.43;1.40;;;15.60;59.10;;;;;;4954251;28;20457;-67
2022/04/17 14:24:43;;;;;;;0.83;0.83;;;15.50;59.40;;;;;;4953481;28;20893;-67
2022/04/17 14:27:10;;;;;;;0.93;0.93;;;15.50;60.10;;;;;;4950228;28;20469;-67
2022/04/17 14:29:37;;;;;;;1.30;1.30;;;15.40;60.40;;;;;;4953274;28;20977;-67
2022/04/17 14:32:05;;;;;;;1.70;1.53;;;15.30;60.40;;;;;;4953908;28;20480;-67
2022/04/17 14:34:32;;;;;;;1.20;1.20;;;15.40;60.20;;;;;;4953646;28;20539;-67
2022/04/17 14:36:59;;;;;;;1.20;1.20;;;15.40;61.30;;;;;;4953834;28;20921;-69
2022/04/17 14:39:25;;;;;;;1.40;1.40;;;15.60;60.00;;;;;;4954007;28;20465;-67
2022/04/17 14:41:53;;;;;;;1.67;1.50;;;15.50;60.80;;;;;;4953371;28;20445;-67
2022/04/17 14:44:19;;;;;;;1.07;1.07;;;15.40;59.30;;;;;;4956939;28;20557;-67
2022/04/17 14:46:46;;;;;;;1.43;1.23;;;15.40;59.80;;;;;;4972820;28;20467;-67
2022/04/17 14:49:14;;;;;;;2.30;2.20;;;15.30;59.80;;;;;;4972907;28;20515;-68
2022/04/17 14:51:41;;;;;;;1.20;1.20;;;15.50;60.20;;;;;;4970361;28;20518;-67
2022/04/17 14:54:13;;;;;;;1.50;1.50;;;15.60;60.00;;;;;;4952212;28;20484;-67
2022/04/17 14:56:39;;;;;;;1.20;1.20;;;15.70;58.90;;;;;;4934889;29;20950;-67
2022/04/17 14:59:06;;;;;;;1.10;1.10;;;15.70;58.30;;;;;;4954414;28;20475;-66
2022/04/17 15:01:33;;;;;;;0.90;0.90;;;15.60;57.90;;;;;;4971586;28;20467;-67
2022/04/17 15:04:00;;;;;;;1.40;1.30;;;15.60;57.70;;;;;;4971836;28;21167;-68
2022/04/17 15:06:28;;;;;;;0.97;0.90;;;15.50;58.00;;;;;;4972666;28;20523;-67
2022/04/17 15:08:54;;;;;;;1.50;1.30;;;15.40;57.90;;;;;;4972786;28;20464;-68
2022/04/17 15:11:21;;;;;;;1.20;1.10;;;15.40;58.90;;;;;;4972075;28;20571;-68
2022/04/17 15:13:48;;;;;;;1.13;1.13;;;15.40;57.40;;;;;;4956825;28;20510;-67
2022/04/17 15:16:14;;;;;;;3.63;1.30;;;15.50;57.70;;;;;;4950050;28;20587;-66
2022/04/17 15:18:41;;;;;;;1.00;1.00;;;15.60;58.30;;;;;;4952954;28;20471;-67
2022/04/17 15:21:08;;;;;;;2.30;1.20;;;15.60;58.50;;;;;;4952514;28;20472;-67
2022/04/17 15:23:37;;;;;;;3.53;1.20;;;15.60;58.50;;;;;;4952846;28;20485;-67
2022/04/17 15:26:03;;;;;;;1.10;1.10;;;15.50;58.10;;;;;;4953095;28;20567;-68
2022/04/17 15:28:30;;;;;;;1.50;1.40;;;15.40;57.90;;;;;;4952774;28;20505;-66
2022/04/17 15:30:56;;;;;;;1.20;1.20;;;15.40;57.70;;;;;;4951823;28;20480;-68
2022/04/17 15:33:23;;;;;;;1.40;1.30;;;15.60;58.00;;;;;;4952155;28;20492;-68
2022/04/17 15:35:50;;;;;;;1.20;1.10;;;15.70;57.20;;;;;;4952783;28;20468;-67
2022/04/17 15:38:17;;;;;;;1.33;1.30;;;15.70;57.10;;;;;;4952858;28;21131;-68
2022/04/17 15:40:44;;;;;;;4.20;1.33;;;15.70;56.50;;;;;;4957140;28;20468;-69
2022/04/17 15:48:49;;;;;;;1.10;1.10;;;15.80;57.10;;;;;;4945563;29;21024;-67
2022/04/17 15:51:16;;;;;;;0.90;0.90;;;15.80;56.90;;;;;;4952216;28;20836;-67
2022/04/17 15:53:43;;;;;;;1.30;1.20;;;15.90;57.80;;;;;;4952461;28;20493;-67
2022/04/17 15:56:12;;;;;;;1.13;1.13;;;15.90;57.30;;;;;;4950984;28;20485;-66
2022/04/17 15:58:43;;;;;;;1.70;1.27;;;15.70;56.30;;;;;;4952665;28;20490;-67
2022/04/17 16:01:10;;;;;;;1.30;1.30;;;15.70;56.70;;;;;;4951743;28;20552;-68
2022/04/17 16:03:37;;;;;;;1.17;1.17;;;15.70;57.10;;;;;;4951694;28;20645;-68
2022/04/17 16:06:04;;;;;;;1.37;1.03;;;15.60;56.70;;;;;;4952750;28;20465;-66
2022/04/17 16:08:31;;;;;;;1.20;1.20;;;15.60;57.00;;;;;;4953612;28;20464;-66
2022/04/17 16:10:57;;;;;;;1.00;1.00;;;15.70;56.90;;;;;;4952116;28;20457;-66
2022/04/17 16:13:25;;;;;;;0.90;0.90;;;15.70;56.10;;;;;;4952261;28;20835;-66
2022/04/17 16:15:52;;;;;;;0.80;0.80;;;15.80;56.40;;;;;;4952275;28;20468;-66
2022/04/17 16:18:19;;;;;;;1.17;1.17;;;15.80;56.50;;;;;;4952122;28;20476;-66
2022/04/17 16:20:45;;;;;;;1.00;1.00;;;15.60;56.00;;;;;;4946248;28;20523;-66
2022/04/17 16:23:12;;;;;;;1.10;1.10;;;15.60;56.00;;;;;;4952077;28;20523;-66
2022/04/17 16:25:38;;;;;;;2.00;1.20;;;15.60;56.50;;;;;;4961703;28;21437;-67
2022/04/17 16:28:06;;;;;;;1.10;1.00;;;15.60;56.40;;;;;;4971608;28;20979;-67
2022/04/17 16:30:34;;;;;;;0.80;0.80;;;15.60;56.90;;;;;;4971203;28;20471;-67
2022/04/17 16:33:01;;;;;;;2.23;2.10;;;15.60;56.70;;;;;;4970503;28;20487;-67
2022/04/17 16:35:28;;;;;;;1.33;1.33;;;15.50;56.60;;;;;;4962172;28;20495;-67
2022/04/17 16:37:54;;;;;;;1.33;1.33;;;15.60;57.30;;;;;;4956603;28;20463;-67
2022/04/17 16:40:21;;;;;;;1.10;1.10;;;15.60;57.90;;;;;;4956683;28;20460;-67
2022/04/17 16:42:48;;;;;;;1.60;1.57;;;15.50;57.10;;;;;;4952244;28;20463;-67
2022/04/17 16:45:14;;;;;;;1.40;1.37;;;15.50;58.10;;;;;;4952241;28;20543;-66
2022/04/17 16:47:42;;;;;;;1.33;1.33;;;15.40;58.00;;;;;;4951534;28;20515;-66
2022/04/17 16:50:10;;;;;;;1.00;1.00;;;15.30;58.90;;;;;;4951586;28;20492;-66
2022/04/17 16:52:38;;;;;;;1.90;1.90;;;15.20;59.80;;;;;;4972045;28;20542;-66
2022/04/17 16:55:06;;;;;;;1.63;1.53;;;15.10;58.70;;;;;;4958716;28;20571;-67
2022/04/17 17:00:17;;;;;;;2.57;1.00;;;15.00;58.50;;;;;;4964503;28;20473;-67
2022/04/17 17:02:45;;;;;;;1.30;1.30;;;15.00;58.30;;;;;;4965466;28;20508;-67
2022/04/17 17:05:12;;;;;;;1.33;0.90;;;15.00;58.10;;;;;;4963179;28;20487;-67
2022/04/17 17:07:38;;;;;;;1.33;1.33;;;14.90;57.20;;;;;;4957578;28;20464;-67
2022/04/17 17:10:06;;;;;;;1.90;1.10;;;14.90;57.40;;;;;;4961865;28;20466;-67